Portada
METAR-TAF:

METAR-TAF

Aeropuertos :

Newnan-Coweta County Airport

Newnan, Georgia, Estados Unidos

latitud: 33-18-44N, longitud: 084-46-13W, altitud: 296 m

Observación

El informe se hizo hace 10 minutos, a las 17:35 UTC
Viento 8 kt del este-noreste con ráfagas de 22 kt
Temperatura 5°C
Humedad 93%
Presión 1024 hPa
Visibilidad: 16.1 km
Cielo nuboso a una altura de 800 ft
Cielo cubierto a una altura de 1300 ft
lluvia ligera

METAR: KCCO 201735Z AUTO 06008G22KT 10SM -RA BKN008 OVC013 05/04 A3024 RMK AO2 T00510039

Hora: 12:45 (17:45 UTC)


TAF: falta

Observaciones y pronósticos meteorológicos de más de 4000 aeropuertos (mensajes METAR y TAF).

Los puntos amarillos y rojos representan las estaciones disponibles.

Ponga el ratón en el punto deseado para ver el nombre de la estación.

Haga clic para ver las observaciones y los pronósticos meteorológicos.

Para cambiar el mapa : haga clic en los botones verdes con una cruz de color negro para hacer un zoom, en el botón verde con un guión para alejar o en las flechas verdes para mapas adyacentes.


METAR-TAF: